Archer, Nebraska
Current Conditions -  °F | °C
As of 10:53 PM on Monday 26 Jan 2015 (Local Time) from KGRI Reporting Station
Clear Clear  
Wind Chill: -3°   Ceiling: Unl
Heat Index:   Visibility: 10mi
Dew Point: -3°   Wind: 5mph
Humidity: 82%   Direction: 250°WSW
Pressure: 30.06"   Gusts: NA
Location:  41.17°N, 98.14°W
Report Text: KGRI 270453Z AUTO 25004KT 10SM CLR 00/M03 A3006 RMK AO2 SLP193 T00001028
Loading
Personal Weather Stations






























Interactive Weather Map New forecast layout! Learn more

10-Day Weather Forecast

Advertisements
Track Severe Weather on mobile